Time;durP1;ratioP1;P1;durP2;ratioP2;P2;SDS_P1;SDS_P2;PMS_P1;PMS_P2;Temp;Humidity;BMP_temperature;BMP_pressure;BME280_temperature;BME280_humidity;BME280_pressure;Samples;Min_cycle;Max_cycle;Signal;HPM_P1;HPM_P2
2022/11/10 00:00:51;;;;;;;10.98;5.00;;;10.00;99.90;;;;;;5028423;28;20049;-79
2022/11/10 00:03:17;;;;;;;9.80;4.95;;;10.00;99.90;;;;;;5022122;28;20017;-79
2022/11/10 00:05:43;;;;;;;11.75;6.38;;;10.00;99.90;;;;;;5026322;28;20078;-79
2022/11/10 00:08:11;;;;;;;9.15;4.55;;;10.00;99.90;;;;;;5020980;28;20486;-79
2022/11/10 00:13:30;;;;;;;10.35;4.43;;;9.90;99.90;;;;;;5021170;28;20500;-79
2022/11/10 00:18:47;;;;;;;10.02;4.15;;;9.90;99.90;;;;;;5020086;28;20533;-79
2022/11/10 00:21:15;;;;;;;11.38;4.50;;;10.00;99.90;;;;;;5019772;28;20069;-78
2022/11/10 00:23:41;;;;;;;7.88;4.75;;;10.00;99.90;;;;;;5034481;28;20054;-78
2022/11/10 00:26:16;;;;;;;8.85;4.72;;;10.10;99.90;;;;;;5018355;28;20034;-79
2022/11/10 00:28:42;;;;;;;14.55;4.80;;;10.10;99.90;;;;;;5019002;28;20049;-78
2022/11/10 00:31:09;;;;;;;9.85;5.13;;;10.20;99.90;;;;;;5026782;28;20036;-79
2022/11/10 00:33:39;;;;;;;14.68;5.45;;;10.20;99.90;;;;;;5022545;28;20026;-78
2022/11/10 00:36:05;;;;;;;9.60;5.15;;;10.20;99.90;;;;;;5033072;28;20058;-79
2022/11/10 00:38:31;;;;;;;9.27;4.72;;;10.30;99.90;;;;;;5020261;28;20137;-79
2022/11/10 00:40:58;;;;;;;12.70;4.65;;;10.30;99.90;;;;;;5029239;28;20030;-79
2022/11/10 00:43:24;;;;;;;9.48;4.38;;;10.30;99.90;;;;;;5018101;28;20046;-79
2022/11/10 00:45:50;;;;;;;10.13;4.47;;;10.40;99.90;;;;;;5025745;28;20032;-79
2022/11/10 00:48:16;;;;;;;9.15;4.53;;;10.40;99.90;;;;;;5028580;28;20048;-79
2022/11/10 00:50:42;;;;;;;5.13;4.55;;;10.40;99.90;;;;;;5023163;28;20057;-79
2022/11/10 00:53:08;;;;;;;7.28;4.45;;;10.40;99.90;;;;;;5016275;28;20026;-79
2022/11/10 00:55:37;;;;;;;4.82;3.90;;;10.40;99.90;;;;;;5018968;28;20402;-79
2022/11/10 00:58:03;;;;;;;12.23;4.03;;;10.30;99.90;;;;;;5022713;28;20048;-79
2022/11/10 01:00:29;;;;;;;7.90;3.58;;;10.30;99.90;;;;;;5031191;28;20518;-79
2022/11/10 01:02:55;;;;;;;8.35;4.00;;;10.20;99.90;;;;;;5024587;28;20104;-79
2022/11/10 01:05:21;;;;;;;4.97;3.17;;;10.10;99.90;;;;;;5030978;28;20030;-79
2022/11/10 01:07:46;;;;;;;4.63;3.70;;;10.10;99.90;;;;;;5023019;28;20056;-79
2022/11/10 01:10:12;;;;;;;10.57;4.40;;;10.10;99.90;;;;;;5030223;28;20060;-79
2022/11/10 01:12:38;;;;;;;4.97;4.03;;;9.90;99.90;;;;;;5019857;28;20026;-79
2022/11/10 01:15:05;;;;;;;17.70;4.63;;;9.80;99.90;;;;;;5029323;28;20079;-79
2022/11/10 01:17:31;;;;;;;6.68;3.15;;;9.70;99.90;;;;;;5017403;28;20022;-79
2022/11/10 01:19:57;;;;;;;7.28;3.72;;;9.60;99.90;;;;;;5027272;28;20021;-79
2022/11/10 01:22:23;;;;;;;8.30;4.18;;;9.60;99.90;;;;;;5016123;28;20133;-79
2022/11/10 01:24:48;;;;;;;10.57;4.18;;;9.60;99.90;;;;;;5023640;28;20013;-79
2022/11/10 01:27:14;;;;;;;9.77;3.67;;;9.60;99.90;;;;;;5015228;28;20033;-79
2022/11/10 01:29:40;;;;;;;7.45;3.38;;;9.50;99.90;;;;;;5018632;28;20030;-79
2022/11/10 01:32:06;;;;;;;10.65;4.10;;;9.50;99.90;;;;;;5028519;28;20024;-79
2022/11/10 01:34:31;;;;;;;13.05;4.80;;;9.50;99.90;;;;;;5026407;28;20033;-79
2022/11/10 01:36:57;;;;;;;13.23;3.60;;;9.50;99.90;;;;;;5023580;28;20030;-79
2022/11/10 01:39:23;;;;;;;13.77;4.20;;;9.40;99.90;;;;;;5025875;28;20052;-79
2022/11/10 01:41:49;;;;;;;5.78;3.35;;;9.30;99.90;;;;;;5024905;28;20034;-79
2022/11/10 01:44:18;;;;;;;9.25;4.05;;;9.30;99.90;;;;;;5024197;28;20088;-79
2022/11/10 01:46:44;;;;;;;9.38;3.80;;;9.20;99.90;;;;;;5020663;28;20502;-78
2022/11/10 01:49:12;;;;;;;12.00;3.80;;;9.20;99.90;;;;;;5021133;28;20048;-79
2022/11/10 01:51:49;;;;;;;9.60;4.13;;;9.20;99.90;;;;;;5018699;28;20029;-79
2022/11/10 01:54:45;;;;;;;8.73;4.30;;;9.20;99.90;;;;;;5016341;28;20060;-79
2022/11/10 01:57:14;;;;;;;10.32;4.28;;;9.30;99.90;;;;;;5016649;28;20060;-79
2022/11/10 01:59:44;;;;;;;11.40;5.03;;;9.30;99.90;;;;;;5021636;28;20029;-78
2022/11/10 02:02:31;;;;;;;13.77;4.40;;;9.20;99.90;;;;;;5025025;28;20057;-79
2022/11/10 02:04:58;;;;;;;10.98;3.97;;;9.20;99.90;;;;;;5014748;28;20426;-79
2022/11/10 02:07:25;;;;;;;8.00;3.83;;;9.20;99.90;;;;;;5019204;28;20026;-79
2022/11/10 02:09:52;;;;;;;7.35;4.22;;;9.20;99.90;;;;;;5044826;28;20029;-78
2022/11/10 02:12:35;;;;;;;9.05;4.35;;;9.20;99.90;;;;;;5035922;28;20521;-79
2022/11/10 02:15:06;;;;;;;7.82;4.38;;;9.20;99.90;;;;;;5028830;28;20056;-78
2022/11/10 02:17:32;;;;;;;13.07;4.85;;;9.20;99.90;;;;;;5017620;28;20039;-79
2022/11/10 02:20:04;;;;;;;6.03;3.85;;;9.10;99.90;;;;;;5026955;28;20033;-78
2022/11/10 02:22:31;;;;;;;5.88;4.20;;;9.10;99.90;;;;;;5016788;28;20026;-79
2022/11/10 02:24:57;;;;;;;9.80;4.80;;;9.10;99.90;;;;;;5023775;28;20013;-78
2022/11/10 02:27:23;;;;;;;8.65;3.90;;;9.10;99.90;;;;;;5016091;28;20560;-79
2022/11/10 02:29:49;;;;;;;9.55;4.47;;;9.10;99.90;;;;;;5020808;28;20034;-79
2022/11/10 02:32:15;;;;;;;7.95;4.00;;;9.10;99.90;;;;;;5031725;28;20486;-78
2022/11/10 02:34:41;;;;;;;9.40;4.00;;;9.10;99.90;;;;;;5029617;28;20090;-78
2022/11/10 02:37:09;;;;;;;14.68;4.65;;;9.10;99.90;;;;;;5030669;28;20402;-79
2022/11/10 02:39:35;;;;;;;7.32;3.85;;;9.00;99.90;;;;;;5026952;28;20111;-80
2022/11/10 02:42:01;;;;;;;7.97;3.90;;;9.00;99.90;;;;;;5025718;28;20037;-79
2022/11/10 02:44:27;;;;;;;11.68;4.65;;;8.90;99.90;;;;;;5027267;28;20018;-78
2022/11/10 02:46:53;;;;;;;6.78;3.85;;;8.90;99.90;;;;;;5024409;28;20112;-79
2022/11/10 02:49:19;;;;;;;9.90;4.25;;;8.90;99.90;;;;;;5025113;28;20437;-79
2022/11/10 02:51:44;;;;;;;12.48;4.35;;;8.90;99.90;;;;;;5022257;28;20026;-79
2022/11/10 02:54:10;;;;;;;5.72;4.07;;;8.90;99.90;;;;;;5022504;28;20028;-79
2022/11/10 02:56:36;;;;;;;5.75;4.43;;;8.90;99.90;;;;;;5020409;28;20033;-79
2022/11/10 02:59:03;;;;;;;7.63;4.65;;;8.80;99.90;;;;;;5035457;28;20066;-78
2022/11/10 03:01:29;;;;;;;8.15;4.57;;;8.80;99.90;;;;;;5035323;28;20067;-79
2022/11/10 03:03:55;;;;;;;12.90;4.70;;;8.80;99.90;;;;;;5026743;28;20097;-79
2022/11/10 03:06:21;;;;;;;6.80;4.03;;;8.90;99.90;;;;;;5033408;28;20027;-79
2022/11/10 03:08:46;;;;;;;6.90;4.47;;;9.00;99.90;;;;;;5026794;28;20050;-78
2022/11/10 03:11:12;;;;;;;9.35;4.25;;;9.10;99.90;;;;;;5028224;28;20022;-78
2022/11/10 03:13:38;;;;;;;9.05;5.03;;;9.00;99.90;;;;;;5025880;28;20026;-78
2022/11/10 03:16:04;;;;;;;10.30;5.00;;;9.00;99.90;;;;;;5027530;28;20053;-78
2022/11/10 03:18:30;;;;;;;6.68;4.70;;;9.10;99.90;;;;;;5024399;28;20568;-78
2022/11/10 03:20:55;;;;;;;7.90;4.15;;;9.20;99.90;;;;;;5024360;28;20030;-79
2022/11/10 03:23:21;;;;;;;10.80;4.68;;;9.30;99.90;;;;;;5023162;28;20014;-78
2022/11/10 03:25:47;;;;;;;9.30;4.03;;;9.40;99.90;;;;;;5022295;28;20105;-78
2022/11/10 03:28:13;;;;;;;4.90;3.90;;;9.40;99.90;;;;;;5019994;28;20024;-78
2022/11/10 03:30:39;;;;;;;9.15;3.60;;;9.30;99.90;;;;;;5024542;28;20032;-78
2022/11/10 03:33:05;;;;;;;8.65;3.50;;;9.40;99.90;;;;;;5025470;28;20455;-79
2022/11/10 03:35:31;;;;;;;6.25;3.40;;;9.40;99.90;;;;;;5030640;28;20029;-78
2022/11/10 03:37:57;;;;;;;7.43;3.70;;;9.40;99.90;;;;;;5026157;28;20128;-78
2022/11/10 03:40:22;;;;;;;6.78;3.50;;;9.50;99.90;;;;;;5024860;28;20042;-78
2022/11/10 03:42:48;;;;;;;9.05;4.82;;;9.50;99.90;;;;;;5026207;28;20018;-78
2022/11/10 03:45:15;;;;;;;7.63;4.20;;;9.50;99.90;;;;;;5023630;28;20371;-78
2022/11/10 03:47:45;;;;;;;6.03;4.22;;;9.60;99.90;;;;;;5023553;28;20125;-78
2022/11/10 03:50:11;;;;;;;6.68;4.28;;;9.60;99.90;;;;;;5021485;28;20031;-78
2022/11/10 03:52:41;;;;;;;12.48;5.63;;;9.70;99.90;;;;;;5020875;28;20022;-78
2022/11/10 03:55:08;;;;;;;9.07;4.82;;;9.80;99.90;;;;;;5019777;28;20398;-78
2022/11/10 03:57:34;;;;;;;12.25;4.75;;;9.80;99.90;;;;;;5018219;28;20128;-78
2022/11/10 04:00:00;;;;;;;6.20;4.20;;;9.90;99.90;;;;;;5027756;28;20026;-78
2022/11/10 04:02:25;;;;;;;10.60;4.25;;;9.90;99.90;;;;;;5024358;28;20022;-78
2022/11/10 04:10:20;;;;;;;5.60;4.07;;;10.00;99.90;;;;;;5030393;28;20032;-77
2022/11/10 04:15:42;;;;;;;6.10;3.65;;;10.00;99.90;;;;;;5026918;28;20153;-78
2022/11/10 04:18:25;;;;;;;5.63;4.03;;;10.00;99.90;;;;;;5022289;28;20029;-78
2022/11/10 04:21:02;;;;;;;7.35;4.18;;;10.00;99.90;;;;;;5022197;28;20402;-78
2022/11/10 04:23:33;;;;;;;6.22;4.00;;;10.10;99.90;;;;;;5021282;28;20042;-77
2022/11/10 04:28:46;;;;;;;6.78;3.72;;;10.10;99.90;;;;;;5016372;28;20029;-78
2022/11/10 04:31:12;;;;;;;8.98;3.92;;;10.10;99.90;;;;;;5020720;28;20060;-78
2022/11/10 04:33:40;;;;;;;8.35;3.78;;;10.20;99.90;;;;;;5018329;28;20034;-78
2022/11/10 04:36:07;;;;;;;4.28;3.78;;;10.20;99.90;;;;;;5036764;28;20029;-78
2022/11/10 04:38:33;;;;;;;9.27;4.03;;;10.30;99.90;;;;;;5019753;28;20030;-78
2022/11/10 04:40:59;;;;;;;6.13;4.22;;;10.30;99.90;;;;;;5030422;28;20039;-78
2022/11/10 04:43:25;;;;;;;10.07;4.30;;;10.30;99.90;;;;;;5019856;28;20113;-78
2022/11/10 04:45:51;;;;;;;10.43;4.78;;;10.30;99.90;;;;;;5042500;28;20021;-78
2022/11/10 04:48:17;;;;;;;7.88;3.95;;;10.30;99.90;;;;;;5018727;28;20026;-78
2022/11/10 04:50:42;;;;;;;9.93;3.95;;;10.40;99.90;;;;;;5022115;28;20034;-78
2022/11/10 04:53:08;;;;;;;8.65;4.28;;;10.40;99.90;;;;;;5018468;28;20026;-78
2022/11/10 04:55:38;;;;;;;7.10;3.80;;;10.40;99.90;;;;;;5018666;28;20119;-78
2022/11/10 04:58:04;;;;;;;6.80;4.20;;;10.40;99.90;;;;;;5017359;28;20052;-78
2022/11/10 05:00:30;;;;;;;9.63;4.18;;;10.40;99.90;;;;;;5030180;28;20263;-78
2022/11/10 05:02:59;;;;;;;5.18;3.75;;;10.40;99.90;;;;;;5025527;28;20135;-78
2022/11/10 05:05:25;;;;;;;5.75;3.50;;;10.40;99.90;;;;;;5029536;28;20033;-78
2022/11/10 05:07:51;;;;;;;6.03;3.80;;;10.40;99.90;;;;;;5023029;28;20036;-78
2022/11/10 05:10:17;;;;;;;5.95;3.88;;;10.40;99.90;;;;;;5028988;28;20036;-78
2022/11/10 05:12:43;;;;;;;7.47;3.75;;;10.40;99.90;;;;;;5021547;28;20469;-78
2022/11/10 05:15:09;;;;;;;7.88;5.03;;;10.40;99.90;;;;;;5029665;28;20053;-77
2022/11/10 05:17:35;;;;;;;11.40;4.88;;;10.40;99.90;;;;;;5020868;28;20030;-78
2022/11/10 05:20:01;;;;;;;9.43;5.70;;;10.40;99.90;;;;;;5028475;28;20093;-78
2022/11/10 05:22:26;;;;;;;9.38;5.68;;;10.40;99.90;;;;;;5018052;28;20040;-77
2022/11/10 05:24:52;;;;;;;7.65;5.10;;;10.40;99.90;;;;;;5025524;28;20014;-78
2022/11/10 05:27:18;;;;;;;7.20;4.65;;;10.40;99.90;;;;;;5017310;28;20034;-77
2022/11/10 05:29:44;;;;;;;12.40;5.25;;;10.40;99.90;;;;;;5008407;28;20106;-78
2022/11/10 05:32:09;;;;;;;9.50;5.28;;;10.40;99.90;;;;;;5026383;28;20033;-78
2022/11/10 05:34:35;;;;;;;12.75;4.78;;;10.40;99.90;;;;;;5026181;28;20063;-77
2022/11/10 05:37:01;;;;;;;6.60;3.95;;;10.50;99.90;;;;;;5026660;28;20058;-78
2022/11/10 05:39:27;;;;;;;7.10;4.22;;;10.40;99.90;;;;;;5026500;28;20513;-77
2022/11/10 05:41:53;;;;;;;7.80;3.75;;;10.40;99.90;;;;;;5021680;28;20030;-78
2022/11/10 05:44:18;;;;;;;8.60;4.07;;;10.50;99.90;;;;;;5025395;28;20029;-78
2022/11/10 05:46:44;;;;;;;6.22;4.60;;;10.40;99.90;;;;;;5021323;28;20037;-78
2022/11/10 05:49:10;;;;;;;6.63;4.78;;;10.50;99.90;;;;;;5020477;28;20013;-77
2022/11/10 05:51:36;;;;;;;8.20;4.85;;;10.40;99.90;;;;;;5018213;28;20498;-77
2022/11/10 05:54:02;;;;;;;6.75;4.40;;;10.40;99.90;;;;;;5019874;28;20030;-77
2022/11/10 05:56:28;;;;;;;8.05;5.00;;;10.50;99.90;;;;;;5019522;28;20030;-77
2022/11/10 05:58:53;;;;;;;10.18;4.32;;;10.50;99.90;;;;;;5012564;28;20089;-77
2022/11/10 06:01:19;;;;;;;7.25;4.70;;;10.50;99.90;;;;;;5020936;28;20120;-77
2022/11/10 06:03:45;;;;;;;14.02;6.03;;;10.50;99.90;;;;;;5024199;28;20096;-77
2022/11/10 06:06:11;;;;;;;15.90;5.95;;;10.60;99.90;;;;;;5031165;28;20045;-78
2022/11/10 06:08:36;;;;;;;11.15;5.68;;;10.60;99.90;;;;;;5023572;28;20029;-78
2022/11/10 06:11:03;;;;;;;11.70;6.30;;;10.60;99.90;;;;;;5024528;28;20133;-79
2022/11/10 06:13:29;;;;;;;19.85;6.57;;;10.60;99.90;;;;;;5023879;28;20052;-78
2022/11/10 06:15:55;;;;;;;18.35;7.50;;;10.70;99.90;;;;;;5021754;28;20054;-79
2022/11/10 06:18:20;;;;;;;11.27;6.18;;;10.70;99.90;;;;;;5020721;28;20049;-78
2022/11/10 06:20:47;;;;;;;14.90;6.70;;;10.80;99.90;;;;;;5021330;28;20560;-78
2022/11/10 06:23:13;;;;;;;12.25;6.47;;;10.80;99.90;;;;;;5020912;28;20028;-78
2022/11/10 06:25:40;;;;;;;14.18;5.72;;;10.80;99.90;;;;;;5019315;28;20081;-78
2022/11/10 06:28:08;;;;;;;20.15;6.93;;;10.80;99.90;;;;;;5017809;28;20024;-78
2022/11/10 06:30:36;;;;;;;13.52;6.10;;;10.80;99.90;;;;;;5011080;28;20018;-78
2022/11/10 06:33:02;;;;;;;17.08;6.45;;;10.90;99.90;;;;;;5019555;28;20118;-78
2022/11/10 06:35:28;;;;;;;10.15;4.70;;;10.90;99.90;;;;;;5026905;28;20025;-78
2022/11/10 06:38:06;;;;;;;9.68;4.85;;;10.90;99.90;;;;;;5017156;28;20036;-77
2022/11/10 06:40:32;;;;;;;15.10;5.05;;;10.90;99.90;;;;;;5011052;28;20097;-78
2022/11/10 06:42:59;;;;;;;12.52;4.80;;;10.90;99.90;;;;;;5012232;28;20046;-78
2022/11/10 06:45:27;;;;;;;18.13;5.43;;;10.90;99.90;;;;;;5017325;28;20026;-79
2022/11/10 06:48:03;;;;;;;21.42;5.97;;;11.00;99.90;;;;;;5012964;28;20105;-78
2022/11/10 06:50:29;;;;;;;16.88;6.63;;;11.00;99.90;;;;;;5013069;28;20050;-78
2022/11/10 06:52:57;;;;;;;13.50;6.40;;;11.00;99.90;;;;;;5010264;28;20066;-79
2022/11/10 06:55:23;;;;;;;18.02;5.65;;;11.00;99.90;;;;;;5011638;28;20026;-79
2022/11/10 06:57:49;;;;;;;15.48;6.43;;;11.00;99.90;;;;;;5014373;28;20426;-78
2022/11/10 07:00:15;;;;;;;106.45;85.50;;;10.90;99.90;;;;;;5024469;28;20137;-78
2022/11/10 07:02:41;;;;;;;14.43;6.97;;;11.00;99.90;;;;;;5012302;28;20030;-78
2022/11/10 07:05:07;;;;;;;10.95;6.57;;;11.00;99.90;;;;;;5024771;28;20021;-79
2022/11/10 07:07:33;;;;;;;18.40;6.78;;;11.00;99.90;;;;;;5017596;28;20029;-79
2022/11/10 07:09:59;;;;;;;18.15;8.45;;;11.00;99.90;;;;;;5023153;28;20486;-79
2022/11/10 07:12:25;;;;;;;12.77;6.85;;;11.10;99.90;;;;;;5016563;28;20030;-79
2022/11/10 07:14:51;;;;;;;16.55;6.35;;;11.10;99.90;;;;;;5022134;28;20018;-79
2022/11/10 07:17:16;;;;;;;12.05;6.18;;;11.10;99.90;;;;;;5020118;28;20033;-79
2022/11/10 07:19:42;;;;;;;17.45;6.55;;;11.10;99.90;;;;;;5021561;28;20026;-79
2022/11/10 07:22:08;;;;;;;16.52;6.55;;;11.10;99.90;;;;;;5018837;28;20105;-79
2022/11/10 07:24:34;;;;;;;19.73;7.25;;;11.10;99.90;;;;;;5031330;28;20167;-79
2022/11/10 07:27:00;;;;;;;14.82;7.20;;;11.20;99.90;;;;;;5031624;28;20057;-77
2022/11/10 07:29:26;;;;;;;18.23;7.13;;;11.20;99.90;;;;;;5015931;28;20010;-78
2022/11/10 07:31:52;;;;;;;17.77;6.88;;;11.20;99.90;;;;;;5016531;28;20153;-78
2022/11/10 07:34:19;;;;;;;18.15;6.40;;;11.30;99.90;;;;;;5013811;28;20029;-77
2022/11/10 07:36:45;;;;;;;16.08;6.25;;;11.30;99.90;;;;;;5017340;28;20034;-78
2022/11/10 07:39:11;;;;;;;19.38;7.45;;;11.30;99.90;;;;;;5015287;28;20026;-78
2022/11/10 07:41:37;;;;;;;25.73;7.45;;;11.30;99.90;;;;;;5017463;28;20030;-77
2022/11/10 07:44:03;;;;;;;23.92;7.32;;;11.40;99.90;;;;;;5017557;28;20022;-78
2022/11/10 07:46:29;;;;;;;17.83;6.60;;;11.40;99.90;;;;;;5016885;28;20133;-77
2022/11/10 07:48:55;;;;;;;19.75;7.75;;;11.50;99.90;;;;;;5024306;28;20024;-79
2022/11/10 07:51:21;;;;;;;19.35;7.95;;;11.50;99.90;;;;;;5018808;28;20064;-77
2022/11/10 07:53:46;;;;;;;22.05;7.05;;;11.60;99.90;;;;;;5017354;28;20014;-77
2022/11/10 07:56:13;;;;;;;12.15;5.72;;;11.70;99.90;;;;;;5036081;28;20033;-77
2022/11/10 07:58:39;;;;;;;13.50;6.25;;;11.80;99.90;;;;;;5024888;28;20052;-78
2022/11/10 08:01:05;;;;;;;12.63;6.50;;;11.80;99.90;;;;;;5028910;28;20482;-78
2022/11/10 08:03:31;;;;;;;17.42;7.30;;;11.80;99.90;;;;;;5021744;28;20367;-77
2022/11/10 08:05:57;;;;;;;11.90;6.05;;;11.80;99.90;;;;;;5026232;28;20466;-77
2022/11/10 08:08:23;;;;;;;18.63;7.72;;;11.90;99.90;;;;;;5023983;28;20025;-78
2022/11/10 08:10:48;;;;;;;18.63;10.15;;;11.90;99.90;;;;;;5024196;28;20018;-78
2022/11/10 08:13:14;;;;;;;19.52;7.65;;;11.90;99.90;;;;;;5034785;28;20041;-77
2022/11/10 08:15:40;;;;;;;13.43;6.18;;;11.90;99.90;;;;;;5016987;28;20502;-77
2022/11/10 08:18:21;;;;;;;18.00;6.32;;;12.00;99.90;;;;;;5013011;28;20033;-78
2022/11/10 08:20:47;;;;;;;15.23;6.28;;;12.00;99.90;;;;;;5013788;28;20026;-77
2022/11/10 08:23:14;;;;;;;14.52;5.68;;;11.90;99.90;;;;;;5017576;28;20026;-76
2022/11/10 08:25:41;;;;;;;16.05;6.90;;;11.90;99.90;;;;;;5018368;28;20021;-77
2022/11/10 08:28:10;;;;;;;15.55;7.15;;;11.90;99.90;;;;;;5018249;28;20029;-78
2022/11/10 08:30:37;;;;;;;16.23;7.28;;;11.90;99.90;;;;;;5014217;28;20495;-77
2022/11/10 08:33:05;;;;;;;14.60;6.50;;;11.90;99.90;;;;;;5018638;28;20036;-78
2022/11/10 08:35:33;;;;;;;15.32;6.28;;;11.90;99.90;;;;;;5009933;28;20022;-78
2022/11/10 08:38:08;;;;;;;25.52;12.48;;;11.90;99.90;;;;;;5028196;28;20169;-78
2022/11/10 08:40:34;;;;;;;21.42;8.18;;;11.90;99.90;;;;;;5021684;28;20030;-78
2022/11/10 08:43:02;;;;;;;20.63;6.18;;;11.90;99.90;;;;;;5018570;28;20052;-78
2022/11/10 08:45:28;;;;;;;15.77;7.40;;;12.00;99.90;;;;;;5023568;28;20025;-78
2022/11/10 08:48:02;;;;;;;16.48;6.32;;;12.10;99.90;;;;;;5016883;28;20022;-78
2022/11/10 08:50:28;;;;;;;12.63;5.95;;;12.20;99.90;;;;;;5028740;28;20025;-78
2022/11/10 08:52:54;;;;;;;19.20;13.98;;;12.10;99.90;;;;;;5025293;28;20025;-79
2022/11/10 08:55:21;;;;;;;14.45;7.13;;;12.20;99.90;;;;;;5026624;28;20076;-78
2022/11/10 08:57:47;;;;;;;12.35;6.22;;;12.20;99.90;;;;;;5012131;28;20119;-78
2022/11/10 09:00:16;;;;;;;15.95;6.68;;;12.20;99.90;;;;;;5015014;28;20081;-79
2022/11/10 09:02:42;;;;;;;20.83;6.32;;;12.20;99.90;;;;;;5027273;28;20113;-79
2022/11/10 09:05:08;;;;;;;15.88;6.13;;;12.20;99.90;;;;;;5019354;28;20045;-79
2022/11/10 09:07:43;;;;;;;16.27;6.68;;;12.30;99.90;;;;;;5018488;28;20156;-78
2022/11/10 09:10:09;;;;;;;17.63;6.10;;;12.40;99.90;;;;;;5021426;28;20030;-79
2022/11/10 09:12:36;;;;;;;18.00;8.18;;;12.50;99.90;;;;;;5025654;28;20028;-78
2022/11/10 09:15:02;;;;;;;13.80;6.72;;;12.60;99.90;;;;;;5016776;28;20061;-79
2022/11/10 09:17:28;;;;;;;21.20;6.88;;;12.60;99.90;;;;;;5013898;28;20033;-78
2022/11/10 09:19:54;;;;;;;18.15;6.93;;;12.60;99.90;;;;;;5016449;28;20026;-77
2022/11/10 09:22:19;;;;;;;12.73;5.97;;;12.60;99.90;;;;;;5013934;28;20048;-77
2022/11/10 09:24:45;;;;;;;22.17;7.43;;;12.50;99.90;;;;;;5015673;28;20041;-79
2022/11/10 09:27:11;;;;;;;20.27;7.00;;;12.60;99.90;;;;;;5017460;28;20052;-77
2022/11/10 09:29:37;;;;;;;15.18;6.82;;;12.60;99.90;;;;;;5019150;28;20033;-77
2022/11/10 09:32:03;;;;;;;20.17;7.78;;;12.70;99.90;;;;;;5029938;28;20033;-77
2022/11/10 09:34:28;;;;;;;17.38;6.95;;;12.80;99.90;;;;;;5018000;28;20091;-80
2022/11/10 09:36:54;;;;;;;17.38;6.07;;;12.90;99.90;;;;;;5023236;28;20025;-77
2022/11/10 09:39:20;;;;;;;58.15;31.58;;;12.90;99.90;;;;;;5015225;28;20030;-77
2022/11/10 09:41:46;;;;;;;13.20;7.15;;;12.90;99.90;;;;;;5019444;28;20026;-79
2022/11/10 09:44:26;;;;;;;16.05;5.35;;;13.00;99.90;;;;;;5017511;28;20450;-77
2022/11/10 09:47:20;;;;;;;16.35;5.93;;;13.00;99.90;;;;;;5014694;28;20018;-77
2022/11/10 09:49:55;;;;;;;15.60;5.95;;;13.00;99.90;;;;;;5011712;28;20038;-79
2022/11/10 09:52:26;;;;;;;10.55;5.10;;;13.10;99.90;;;;;;5009200;28;20028;-77
2022/11/10 09:55:16;;;;;;;15.15;5.55;;;13.10;99.90;;;;;;5015795;28;20033;-77
2022/11/10 09:57:43;;;;;;;16.58;6.07;;;13.20;99.90;;;;;;5015209;28;20029;-77
2022/11/10 10:00:16;;;;;;;11.65;5.80;;;13.10;99.90;;;;;;5014787;28;20114;-80
2022/11/10 10:02:49;;;;;;;23.60;6.13;;;13.20;99.90;;;;;;5011232;28;20495;-79
2022/11/10 10:05:50;;;;;;;15.73;4.90;;;13.10;99.90;;;;;;5014771;28;20022;-78
2022/11/10 10:08:24;;;;;;;11.43;5.30;;;13.20;99.90;;;;;;5011201;28;20037;-77
2022/11/10 10:11:16;;;;;;;11.25;4.82;;;13.30;99.90;;;;;;5029588;28;20108;-80
2022/11/10 10:14:12;;;;;;;14.50;5.22;;;13.40;99.90;;;;;;5024905;28;20061;-77
2022/11/10 10:16:55;;;;;;;16.02;4.97;;;13.60;99.90;;;;;;5012644;28;20049;-79
2022/11/10 10:19:39;;;;;;;13.65;5.40;;;13.70;99.90;;;;;;5014748;28;20026;-79
2022/11/10 10:22:30;;;;;;;15.88;4.35;;;14.00;99.90;;;;;;5014516;28;20041;-77
2022/11/10 10:25:01;;;;;;;10.37;4.57;;;14.20;99.90;;;;;;5015105;28;20019;-78
2022/11/10 10:27:30;;;;;;;15.93;5.35;;;14.40;99.90;;;;;;5010537;28;20620;-78
2022/11/10 10:29:56;;;;;;;18.92;5.50;;;14.50;99.90;;;;;;5014356;28;20030;-78
2022/11/10 10:32:22;;;;;;;19.88;5.18;;;14.60;99.90;;;;;;5012073;28;20037;-79
2022/11/10 10:34:48;;;;;;;14.82;4.53;;;14.30;99.90;;;;;;5013440;28;20456;-77
2022/11/10 10:37:24;;;;;;;10.50;4.60;;;14.10;99.90;;;;;;5012365;28;20665;-77
2022/11/10 10:39:54;;;;;;;12.27;4.57;;;13.90;99.90;;;;;;5014161;28;20053;-77
2022/11/10 10:42:35;;;;;;;15.23;4.27;;;13.90;99.90;;;;;;5012145;28;20032;-76
2022/11/10 10:45:21;;;;;;;21.63;4.97;;;13.90;99.90;;;;;;5014145;28;20026;-77
2022/11/10 10:47:50;;;;;;;12.00;4.25;;;13.90;99.90;;;;;;5010225;28;20030;-76
2022/11/10 10:50:30;;;;;;;14.85;5.38;;;14.00;99.90;;;;;;5015751;28;20101;-76
2022/11/10 10:53:07;;;;;;;;;;;14.20;99.90;;;;;;5016158;28;20026;-75
2022/11/10 10:55:34;;;;;;;11.35;3.97;;;14.40;99.90;;;;;;5016739;28;19921;-76
2022/11/10 10:58:17;;;;;;;8.05;3.75;;;14.60;99.90;;;;;;5014440;28;20026;-76
2022/11/10 11:00:44;;;;;;;15.13;4.72;;;14.70;99.90;;;;;;5019705;28;20026;-75
2022/11/10 11:03:27;;;;;;;14.88;3.85;;;14.80;99.90;;;;;;5014795;28;20034;-76
2022/11/10 11:06:18;;;;;;;10.93;4.07;;;15.00;99.90;;;;;;5022196;28;20029;-76
2022/11/10 11:09:08;;;;;;;10.15;3.95;;;15.20;99.90;;;;;;5020214;28;20032;-76
2022/11/10 11:11:39;;;;;;;9.30;3.93;;;14.90;99.90;;;;;;5036018;28;20029;-76
2022/11/10 11:14:31;;;;;;;9.60;3.55;;;14.70;99.90;;;;;;5024658;28;20088;-76
2022/11/10 11:17:03;;;;;;;8.77;3.58;;;14.60;99.90;;;;;;5030173;28;20482;-75
2022/11/10 11:19:35;;;;;;;14.57;4.00;;;14.60;99.90;;;;;;5042626;28;20032;-76
2022/11/10 11:22:31;;;;;;;14.35;4.47;;;14.50;99.90;;;;;;5028038;28;20478;-76
2022/11/10 11:25:26;;;;;;;12.32;4.18;;;14.30;99.90;;;;;;5016858;28;20029;-75
2022/11/10 11:28:40;;;;;;;17.92;4.40;;;14.30;99.90;;;;;;5012477;28;20029;-76
2022/11/10 11:31:20;;;;;;;14.68;4.70;;;14.00;99.90;;;;;;5028569;28;20078;-76
2022/11/10 11:33:48;;;;;;;11.60;4.30;;;14.00;99.90;;;;;;5018828;28;20415;-76
2022/11/10 11:36:37;;;;;;;11.60;4.13;;;13.80;99.90;;;;;;5025702;28;20178;-76
2022/11/10 11:39:45;;;;;;;17.20;4.63;;;13.70;99.90;;;;;;5032236;28;20034;-76
2022/11/10 11:42:17;;;;;;;11.48;4.18;;;13.80;99.90;;;;;;5024978;28;20080;-76
2022/11/10 11:44:58;;;;;;;15.32;4.53;;;13.80;99.90;;;;;;5017722;28;20029;-77
2022/11/10 11:47:29;;;;;;;11.13;3.38;;;13.90;99.90;;;;;;5014071;28;20037;-77
2022/11/10 11:50:14;;;;;;;8.52;4.18;;;13.80;99.90;;;;;;5023956;28;20049;-76
2022/11/10 11:52:53;;;;;;;10.15;4.50;;;14.00;99.90;;;;;;5012247;28;20065;-77
2022/11/10 11:55:51;;;;;;;11.80;4.18;;;14.10;99.90;;;;;;5014037;28;20030;-76
2022/11/10 11:58:20;;;;;;;12.35;4.88;;;14.10;99.90;;;;;;5009219;28;20048;-75
2022/11/10 12:01:12;;;;;;;9.55;3.80;;;14.20;99.90;;;;;;5030998;28;20095;-76
2022/11/10 12:04:09;;;;;;;13.02;4.40;;;14.20;99.90;;;;;;5012736;28;20018;-76
2022/11/10 12:07:09;;;;;;;10.95;3.42;;;14.20;99.90;;;;;;5014504;28;20030;-76
2022/11/10 12:10:04;;;;;;;15.65;4.47;;;14.10;99.90;;;;;;5015086;28;20144;-75
2022/11/10 12:13:13;;;;;;;10.82;3.95;;;14.20;99.90;;;;;;5013974;28;20104;-77
2022/11/10 12:16:02;;;;;;;15.77;3.88;;;14.30;99.90;;;;;;5052471;28;20060;-77
2022/11/10 12:18:47;;;;;;;9.73;4.50;;;14.40;99.90;;;;;;5029789;28;20033;-76
2022/11/10 12:21:19;;;;;;;12.57;5.10;;;14.40;99.90;;;;;;5017461;28;20029;-77
2022/11/10 12:24:13;;;;;;;16.67;5.72;;;14.50;99.90;;;;;;5032385;28;20029;-76
2022/11/10 12:27:00;;;;;;;9.57;4.07;;;14.40;99.90;;;;;;5016943;28;20032;-76
2022/11/10 12:29:34;;;;;;;12.00;4.57;;;14.50;99.90;;;;;;5007560;28;20037;-76
2022/11/10 12:32:58;;;;;;;16.80;4.40;;;14.50;99.90;;;;;;5015644;28;20084;-77
2022/11/10 12:35:27;;;;;;;11.82;4.55;;;14.60;99.90;;;;;;5017247;28;20578;-77
2022/11/10 12:38:00;;;;;;;9.07;3.85;;;14.60;99.90;;;;;;5020632;28;20030;-77
2022/11/10 12:40:38;;;;;;;11.95;4.13;;;14.60;99.90;;;;;;5004590;28;20033;-76
2022/11/10 12:43:31;;;;;;;11.27;3.83;;;14.70;99.90;;;;;;5013999;28;20032;-77
2022/11/10 12:46:03;;;;;;;8.63;3.67;;;14.80;99.90;;;;;;5021378;28;20104;-78
2022/11/10 12:48:42;;;;;;;11.73;3.25;;;14.80;99.90;;;;;;5027898;28;20045;-77
2022/11/10 12:51:19;;;;;;;10.20;3.10;;;14.80;99.90;;;;;;5017956;28;20144;-78
2022/11/10 12:53:47;;;;;;;11.07;3.95;;;14.80;99.90;;;;;;5023214;28;20061;-77
2022/11/10 12:56:54;;;;;;;12.57;3.78;;;14.90;99.90;;;;;;5027747;28;20026;-78
2022/11/10 12:59:20;;;;;;;6.07;3.28;;;14.80;99.90;;;;;;5020552;28;20445;-78
2022/11/10 13:02:15;;;;;;;11.95;3.28;;;14.80;99.90;;;;;;5005943;28;20046;-78
2022/11/10 13:04:41;;;;;;;8.75;4.15;;;14.70;99.90;;;;;;5016910;28;20034;-78
2022/11/10 13:07:09;;;;;;;12.02;3.97;;;14.80;99.90;;;;;;5030811;28;20028;-77
2022/11/10 13:09:38;;;;;;;8.27;3.70;;;14.80;99.90;;;;;;5021408;28;20093;-77
2022/11/10 13:12:09;;;;;;;10.20;3.47;;;14.80;99.90;;;;;;5018696;28;20033;-77
2022/11/10 13:14:37;;;;;;;14.77;4.70;;;15.00;99.90;;;;;;5030229;28;20569;-78
2022/11/10 13:17:04;;;;;;;8.45;3.70;;;15.10;99.90;;;;;;5032166;28;20056;-78